Time;durP1;ratioP1;P1;durP2;ratioP2;P2;SDS_P1;SDS_P2;PMS_P1;PMS_P2;Temp;Humidity;BMP_temperature;BMP_pressure;BME280_temperature;BME280_humidity;BME280_pressure;Samples;Min_cycle;Max_cycle;Signal;HPM_P1;HPM_P2
2023/06/10 00:01:49;;;;;;;10.27;5.90;;;17.20;99.90;;;;;;5070294;28;20926;-80
2023/06/10 00:04:16;;;;;;;9.23;5.85;;;17.20;99.90;;;;;;5064589;28;20488;-79
2023/06/10 00:06:43;;;;;;;11.85;5.70;;;;;;;;;;5058244;28;20424;-80
2023/06/10 00:09:10;;;;;;;9.75;5.40;;;17.30;99.90;;;;;;5088591;28;20744;-80
2023/06/10 00:11:36;;;;;;;9.38;5.53;;;17.20;99.90;;;;;;5072265;28;20419;-80
2023/06/10 00:14:03;;;;;;;9.70;5.68;;;;;;;;;;5054352;28;20396;-80
2023/06/10 00:16:29;;;;;;;10.13;5.43;;;;;;;;;;5037293;28;20419;-80
2023/06/10 00:18:55;;;;;;;10.45;5.72;;;;;;;;;;5087939;28;20423;-80
2023/06/10 00:21:22;;;;;;;7.97;5.18;;;17.10;99.90;;;;;;5057095;28;20415;-78
2023/06/10 00:23:48;;;;;;;13.52;5.47;;;17.00;99.90;;;;;;5041737;28;20419;-79
2023/06/10 00:26:15;;;;;;;9.60;5.18;;;;;;;;;;5069111;28;20396;-79
2023/06/10 00:28:41;;;;;;;10.70;5.57;;;16.80;99.90;;;;;;5048200;28;20416;-78
2023/06/10 00:31:06;;;;;;;10.15;5.13;;;17.00;99.90;;;;;;5053390;28;20933;-78
2023/06/10 00:33:32;;;;;;;10.67;5.30;;;;;;;;;;5054287;28;20414;-79
2023/06/10 00:35:58;;;;;;;8.07;4.88;;;16.90;99.90;;;;;;5037968;28;20478;-79
2023/06/10 00:38:24;;;;;;;11.37;5.30;;;;;;;;;;5038429;28;20511;-79
2023/06/10 00:40:50;;;;;;;8.80;5.18;;;16.90;99.90;;;;;;5071364;28;20745;-79
2023/06/10 00:43:16;;;;;;;10.73;5.77;;;;;;;;;;5038026;28;20617;-79
2023/06/10 00:45:41;;;;;;;8.98;5.28;;;16.90;99.90;;;;;;5054773;28;20756;-79
2023/06/10 00:48:07;;;;;;;9.50;5.65;;;16.80;99.90;;;;;;5088062;28;20408;-79
2023/06/10 00:50:34;;;;;;;8.38;5.30;;;;;;;;;;5054806;28;20906;-80
2023/06/10 00:53:01;;;;;;;10.02;5.38;;;16.80;99.90;;;;;;5054572;28;20444;-79
2023/06/10 00:55:27;;;;;;;9.90;5.28;;;16.80;99.90;;;;;;5054378;28;20408;-78
2023/06/10 00:57:53;;;;;;;11.15;5.88;;;16.90;99.90;;;;;;5054084;28;20436;-79
2023/06/10 01:00:19;;;;;;;8.45;5.20;;;16.70;99.90;;;;;;5054062;28;20502;-79
2023/06/10 01:02:45;;;;;;;11.98;5.35;;;;;;;;;;5037720;28;20530;-78
2023/06/10 01:05:12;;;;;;;10.70;5.43;;;16.60;99.90;;;;;;5054415;28;20400;-79
2023/06/10 01:07:46;;;;;;;11.20;5.10;;;16.70;99.90;;;;;;5037404;28;20424;-79
2023/06/10 01:10:18;;;;;;;11.63;5.65;;;16.70;99.90;;;;;;5054094;28;20400;-79
2023/06/10 01:12:48;;;;;;;9.57;5.60;;;16.50;99.90;;;;;;5054930;28;20414;-79
2023/06/10 01:15:15;;;;;;;11.57;6.07;;;16.60;99.90;;;;;;5056835;28;20405;-79
2023/06/10 01:17:58;;;;;;;9.20;5.57;;;16.40;99.90;;;;;;5058197;28;21021;-80
2023/06/10 01:20:26;;;;;;;8.27;5.28;;;16.40;99.90;;;;;;5058153;28;20984;-78
2023/06/10 01:22:54;;;;;;;9.70;5.68;;;;;;;;;;5057345;28;20431;-78
2023/06/10 01:25:27;;;;;;;11.23;5.50;;;16.60;99.90;;;;;;5039029;28;20401;-78
2023/06/10 01:28:07;;;;;;;11.13;6.05;;;16.50;99.90;;;;;;5041440;28;20419;-79
2023/06/10 01:30:43;;;;;;;11.13;5.70;;;16.30;99.90;;;;;;5058022;28;20442;-79
2023/06/10 01:33:11;;;;;;;11.52;5.32;;;;;;;;;;5056844;28;20511;-79
2023/06/10 01:35:39;;;;;;;11.07;5.00;;;16.40;99.90;;;;;;5040977;28;20408;-79
2023/06/10 01:38:05;;;;;;;10.38;5.20;;;16.20;99.90;;;;;;5057760;28;20435;-78
2023/06/10 01:40:33;;;;;;;9.90;5.70;;;16.10;99.90;;;;;;5041376;28;20429;-79
2023/06/10 01:42:59;;;;;;;9.60;5.47;;;;;;;;;;5041055;28;20399;-77
2023/06/10 01:45:24;;;;;;;9.77;5.72;;;16.00;99.90;;;;;;5043016;28;20404;-78
2023/06/10 01:47:50;;;;;;;11.87;5.93;;;;;;;;;;5057616;28;20399;-79
2023/06/10 01:50:16;;;;;;;10.57;5.72;;;;;;;;;;5041200;28;20418;-79
2023/06/10 01:52:42;;;;;;;9.27;5.67;;;15.80;99.90;;;;;;5057925;28;20438;-79
2023/06/10 01:55:08;;;;;;;9.20;5.30;;;;;;;;;;5057560;28;20510;-79
2023/06/10 01:57:34;;;;;;;9.30;5.25;;;;;;;;;;5059479;28;20754;-79
2023/06/10 02:00:00;;;;;;;8.70;5.32;;;16.00;99.90;;;;;;5062100;28;20782;-79
2023/06/10 02:02:26;;;;;;;11.10;5.80;;;15.70;99.90;;;;;;5058640;28;20415;-78
2023/06/10 02:04:52;;;;;;;8.77;5.40;;;;;;;;;;5056896;28;20949;-79
2023/06/10 02:07:18;;;;;;;9.52;5.60;;;15.90;99.90;;;;;;5040860;28;20431;-78
2023/06/10 02:09:44;;;;;;;12.80;5.87;;;;;;;;;;5058132;28;20427;-78
2023/06/10 02:12:10;;;;;;;10.00;5.30;;;15.70;99.90;;;;;;5057009;28;20404;-79
2023/06/10 02:14:36;;;;;;;9.13;5.50;;;15.60;99.90;;;;;;5057293;28;20430;-79
2023/06/10 02:17:02;;;;;;;8.45;5.00;;;15.60;99.90;;;;;;5062466;28;20419;-79
2023/06/10 02:19:28;;;;;;;10.43;5.70;;;15.80;99.90;;;;;;5040025;28;20416;-79
2023/06/10 02:21:54;;;;;;;9.47;5.70;;;15.50;99.90;;;;;;5040961;28;20412;-79
2023/06/10 02:24:20;;;;;;;10.07;5.68;;;;;;;;;;5056898;28;20407;-78
2023/06/10 02:26:47;;;;;;;11.80;5.68;;;15.20;99.90;;;;;;5055910;28;20419;-79
2023/06/10 02:29:13;;;;;;;9.82;6.13;;;15.30;99.90;;;;;;5056838;28;20488;-79
2023/06/10 02:31:39;;;;;;;9.50;5.75;;;15.40;99.90;;;;;;5090419;28;20439;-78
2023/06/10 02:34:05;;;;;;;10.95;5.85;;;15.20;99.90;;;;;;5073329;28;20407;-79
2023/06/10 02:36:31;;;;;;;10.77;5.80;;;;;;;;;;5056615;28;20403;-78
2023/06/10 02:38:57;;;;;;;12.07;6.13;;;15.20;99.90;;;;;;5040007;28;20462;-79
2023/06/10 02:41:24;;;;;;;11.33;6.13;;;15.10;99.90;;;;;;5039937;28;20440;-79
2023/06/10 02:43:50;;;;;;;10.13;5.88;;;;;;;;;;5056905;28;20412;-79
2023/06/10 02:46:16;;;;;;;11.82;6.00;;;;;;;;;;5064788;28;20461;-79
2023/06/10 02:48:43;;;;;;;10.88;6.20;;;;;;;;;;5056623;28;20760;-78
2023/06/10 02:51:10;;;;;;;11.25;6.03;;;15.10;99.90;;;;;;5056360;28;20430;-78
2023/06/10 02:53:36;;;;;;;10.50;5.87;;;;;;;;;;5056456;28;20396;-79
2023/06/10 02:56:02;;;;;;;11.32;5.93;;;14.80;99.90;;;;;;5055503;28;20435;-78
2023/06/10 02:58:28;;;;;;;11.30;6.43;;;;;;;;;;5090061;28;20839;-77
2023/06/10 03:00:54;;;;;;;11.90;6.45;;;;;;;;;;5039738;28;20403;-78
2023/06/10 03:03:22;;;;;;;11.13;6.57;;;;;;;;;;5056734;28;20747;-79
2023/06/10 03:05:48;;;;;;;12.68;6.07;;;14.50;99.90;;;;;;5056248;28;20441;-79
2023/06/10 03:08:14;;;;;;;11.68;6.53;;;14.50;99.90;;;;;;5055795;28;20910;-79
2023/06/10 03:10:40;;;;;;;11.10;6.80;;;;;;;;;;5056278;28;20411;-79
2023/06/10 03:13:06;;;;;;;10.68;6.55;;;14.50;99.90;;;;;;5056020;28;20395;-78
2023/06/10 03:15:33;;;;;;;12.10;6.93;;;;;;;;;;5055808;28;20733;-79
2023/06/10 03:18:02;;;;;;;10.95;6.15;;;14.40;99.90;;;;;;5039263;28;20427;-79
2023/06/10 03:20:28;;;;;;;13.98;6.60;;;;;;;;;;5055603;28;20400;-79
2023/06/10 03:22:54;;;;;;;14.27;6.57;;;14.40;99.90;;;;;;5055027;28;20946;-79
2023/06/10 03:25:20;;;;;;;12.50;7.05;;;14.30;99.90;;;;;;5056555;28;20404;-78
2023/06/10 03:27:46;;;;;;;13.93;6.93;;;;;;;;;;5060219;28;20954;-79
2023/06/10 03:30:13;;;;;;;10.43;6.43;;;14.10;99.90;;;;;;5061633;28;20412;-79
2023/06/10 03:32:40;;;;;;;12.70;7.05;;;;;;;;;;5056837;28;20414;-79
2023/06/10 03:35:07;;;;;;;11.82;6.43;;;14.40;99.90;;;;;;5070193;28;20499;-79
2023/06/10 03:37:33;;;;;;;12.53;6.50;;;;;;;;;;5054527;28;20824;-79
2023/06/10 03:39:59;;;;;;;10.95;6.70;;;14.20;99.90;;;;;;5056897;28;20407;-79
2023/06/10 03:42:24;;;;;;;12.57;6.77;;;14.10;99.90;;;;;;5062657;28;20415;-79
2023/06/10 03:44:50;;;;;;;11.27;6.73;;;14.10;99.90;;;;;;5105082;28;20494;-79
2023/06/10 03:47:16;;;;;;;10.60;6.90;;;14.20;99.90;;;;;;5041125;28;20399;-78
2023/06/10 03:49:41;;;;;;;15.20;7.20;;;13.80;99.90;;;;;;5055750;28;20406;-78
2023/06/10 03:52:07;;;;;;;10.37;6.40;;;14.00;99.90;;;;;;5055365;28;20906;-79
2023/06/10 03:54:34;;;;;;;10.53;7.00;;;14.20;99.90;;;;;;5055238;28;20479;-79
2023/06/10 03:57:01;;;;;;;9.88;6.97;;;;;;;;;;5054699;28;20419;-78
2023/06/10 03:59:28;;;;;;;15.15;6.65;;;;;;;;;;5088492;28;20423;-78
2023/06/10 04:01:54;;;;;;;11.77;6.82;;;;;;;;;;5054960;28;20403;-77
2023/06/10 04:04:20;;;;;;;16.08;6.90;;;14.00;99.90;;;;;;5055101;28;20464;-79
2023/06/10 04:06:48;;;;;;;11.23;6.70;;;;;;;;;;5038438;28;20396;-78
2023/06/10 04:09:13;;;;;;;10.80;6.80;;;14.00;99.90;;;;;;5072068;28;20484;-78
2023/06/10 04:11:40;;;;;;;11.80;7.07;;;;;;;;;;5072853;28;20435;-79
2023/06/10 04:14:05;;;;;;;11.57;6.65;;;14.10;99.90;;;;;;5031013;28;20399;-79
2023/06/10 04:16:31;;;;;;;12.70;6.37;;;;;;;;;;5054870;28;20755;-79
2023/06/10 04:18:58;;;;;;;10.73;6.22;;;14.30;99.90;;;;;;5088423;28;20424;-80
2023/06/10 04:21:24;;;;;;;11.35;6.25;;;14.10;99.90;;;;;;5084931;28;20445;-79
2023/06/10 04:23:50;;;;;;;11.75;6.10;;;14.30;99.90;;;;;;5060705;28;20407;-79
2023/06/10 04:26:17;;;;;;;12.25;6.60;;;;;;;;;;5038446;28;20461;-78
2023/06/10 04:28:46;;;;;;;13.23;6.30;;;;;;;;;;5055075;28;20796;-79
2023/06/10 04:31:12;;;;;;;11.95;6.07;;;14.40;99.90;;;;;;5054855;28;20820;-80
2023/06/10 04:33:38;;;;;;;14.60;6.55;;;;;;;;;;5054730;28;20427;-80
2023/06/10 04:36:06;;;;;;;11.63;6.55;;;14.20;99.90;;;;;;5054676;28;20832;-80
2023/06/10 04:38:32;;;;;;;12.05;6.13;;;14.40;99.90;;;;;;5054728;28;20772;-80
2023/06/10 04:40:58;;;;;;;11.70;6.22;;;14.60;99.90;;;;;;5065298;28;20416;-79
2023/06/10 04:43:24;;;;;;;10.93;6.22;;;14.50;99.90;;;;;;5054769;28;20419;-80
2023/06/10 04:45:50;;;;;;;13.05;6.85;;;;;;;;;;5089846;28;20440;-79
2023/06/10 04:48:15;;;;;;;11.38;6.80;;;14.50;99.90;;;;;;5054565;28;20787;-79
2023/06/10 04:50:41;;;;;;;13.80;6.53;;;;;;;;;;5055786;28;20403;-80
2023/06/10 04:53:08;;;;;;;10.52;6.35;;;;;;;;;;5054954;28;20424;-78
2023/06/10 04:55:34;;;;;;;15.05;6.60;;;;;;;;;;5054402;28;20464;-79
2023/06/10 04:58:00;;;;;;;13.95;7.03;;;14.50;99.90;;;;;;5053778;28;20438;-80
2023/06/10 05:00:28;;;;;;;10.75;6.57;;;;;;;;;;5058202;28;20480;-80
2023/06/10 05:02:55;;;;;;;13.48;6.65;;;;;;;;;;5053536;28;20435;-77
2023/06/10 05:05:22;;;;;;;13.48;6.82;;;;;;;;;;5053735;28;20416;-78
2023/06/10 05:07:48;;;;;;;14.07;6.60;;;14.90;99.90;;;;;;5054908;28;20978;-77
2023/06/10 05:10:14;;;;;;;10.93;6.70;;;;;;;;;;5061046;28;20461;-78
2023/06/10 05:12:40;;;;;;;11.07;6.10;;;14.70;99.90;;;;;;5054885;28;20927;-78
2023/06/10 05:15:07;;;;;;;10.85;6.40;;;;;;;;;;5053435;28;20472;-78
2023/06/10 05:17:34;;;;;;;14.27;6.63;;;;;;;;;;5054002;28;20485;-81
2023/06/10 05:20:01;;;;;;;14.13;6.40;;;15.10;99.90;;;;;;5053535;28;20424;-80
2023/06/10 05:22:27;;;;;;;12.20;6.32;;;;;;;;;;5054066;28;20419;-79
2023/06/10 05:24:53;;;;;;;11.82;6.60;;;;;;;;;;5037291;28;20455;-77
2023/06/10 05:27:19;;;;;;;12.48;6.35;;;15.10;99.90;;;;;;5054045;28;20403;-78
2023/06/10 05:29:45;;;;;;;13.27;6.67;;;;;;;;;;5053471;28;20899;-77
2023/06/10 05:32:11;;;;;;;12.00;6.18;;;15.20;99.90;;;;;;5047053;28;20427;-77
2023/06/10 05:34:37;;;;;;;12.45;6.50;;;15.30;99.90;;;;;;5035049;28;20419;-77
2023/06/10 05:37:03;;;;;;;11.93;6.53;;;;;;;;;;5053443;28;20779;-77
2023/06/10 05:39:29;;;;;;;11.25;6.40;;;15.60;99.90;;;;;;5053161;28;20789;-78
2023/06/10 05:41:54;;;;;;;12.68;6.50;;;15.50;99.90;;;;;;5046604;28;20422;-78
2023/06/10 05:44:20;;;;;;;11.23;6.10;;;;;;;;;;5053579;28;20403;-78
2023/06/10 05:46:46;;;;;;;11.88;6.65;;;15.50;99.90;;;;;;5055392;28;20420;-77
2023/06/10 05:49:12;;;;;;;12.37;6.23;;;;;;;;;;5053210;28;20433;-78
2023/06/10 05:51:38;;;;;;;13.70;6.83;;;;;;;;;;5053623;28;20832;-77
2023/06/10 05:54:04;;;;;;;16.25;7.05;;;16.00;99.90;;;;;;5053322;28;20919;-78
2023/06/10 05:56:30;;;;;;;9.80;6.13;;;16.00;99.90;;;;;;5053466;28;20430;-78
2023/06/10 05:58:56;;;;;;;12.43;6.70;;;16.10;99.90;;;;;;5066855;28;20427;-78
2023/06/10 06:01:22;;;;;;;13.32;6.90;;;16.10;99.90;;;;;;5083413;28;20931;-78
2023/06/10 06:03:48;;;;;;;12.50;6.30;;;;;;;;;;5048029;28;20427;-79
2023/06/10 06:06:14;;;;;;;13.87;6.63;;;;;;;;;;5064999;28;20495;-79
2023/06/10 06:08:39;;;;;;;12.30;6.93;;;16.30;99.90;;;;;;5060188;28;20414;-78
2023/06/10 06:11:05;;;;;;;11.60;6.53;;;16.50;99.90;;;;;;5054027;28;20424;-78
2023/06/10 06:13:31;;;;;;;14.73;6.67;;;;;;;;;;5056267;28;20415;-77
2023/06/10 06:15:57;;;;;;;12.57;6.28;;;16.60;99.90;;;;;;5039163;28;20451;-78
2023/06/10 06:18:22;;;;;;;14.80;6.28;;;16.60;99.90;;;;;;5057243;28;20467;-78
2023/06/10 06:20:48;;;;;;;11.45;6.40;;;16.80;99.90;;;;;;5056677;28;20477;-77
2023/06/10 06:23:14;;;;;;;13.10;6.23;;;;;;;;;;5057160;28;20446;-79
2023/06/10 06:25:41;;;;;;;10.80;6.10;;;;;;;;;;5060333;28;20486;-76
2023/06/10 06:28:08;;;;;;;12.02;6.13;;;17.40;99.90;;;;;;5062289;28;21008;-76
2023/06/10 06:30:35;;;;;;;10.85;6.15;;;;;;;;;;5070608;28;20488;-77
2023/06/10 06:33:01;;;;;;;11.48;6.30;;;17.40;99.90;;;;;;5057193;28;20456;-77
2023/06/10 06:35:27;;;;;;;11.63;6.00;;;;;;;;;;5053211;28;20415;-79
2023/06/10 06:37:53;;;;;;;10.68;5.88;;;17.50;99.90;;;;;;5040056;28;20498;-76
2023/06/10 06:40:19;;;;;;;12.23;6.10;;;;;;;;;;5052649;28;20458;-77
2023/06/10 06:42:45;;;;;;;11.73;6.00;;;;;;;;;;5060524;28;20415;-76
2023/06/10 06:45:11;;;;;;;11.10;6.35;;;;;;;;;;5038984;28;20419;-78
2023/06/10 06:47:37;;;;;;;10.57;6.35;;;17.60;99.90;;;;;;5036355;28;20426;-79
2023/06/10 06:50:03;;;;;;;9.13;5.90;;;17.30;99.90;;;;;;5054615;28;21016;-76
2023/06/10 06:52:29;;;;;;;12.75;6.20;;;17.60;99.90;;;;;;5057719;28;20811;-77
2023/06/10 06:54:55;;;;;;;11.80;6.38;;;;;;;;;;5087974;28;20441;-79
2023/06/10 06:57:23;;;;;;;12.73;6.25;;;;;;;;;;5065660;28;20415;-78
2023/06/10 06:59:49;;;;;;;13.02;5.88;;;;;;;;;;5055518;28;20428;-77
2023/06/10 07:02:14;;;;;;;10.90;5.93;;;18.00;99.90;;;;;;5026358;28;20416;-77
2023/06/10 07:04:41;;;;;;;11.87;5.93;;;;;;;;;;5061845;28;20416;-79
2023/06/10 07:07:09;;;;;;;10.07;5.93;;;;;;;;;;5052586;28;20434;-78
2023/06/10 07:09:34;;;;;;;10.48;5.78;;;18.70;99.90;;;;;;5071233;28;20416;-79
2023/06/10 07:12:00;;;;;;;10.97;5.73;;;18.90;99.90;;;;;;5035763;28;20447;-77
2023/06/10 07:14:26;;;;;;;12.17;5.70;;;;;;;;;;5054435;28;20415;-80
2023/06/10 07:16:52;;;;;;;10.77;6.00;;;18.70;99.90;;;;;;5050217;28;20516;-76
2023/06/10 07:19:18;;;;;;;10.20;5.50;;;19.10;99.90;;;;;;5085576;28;20873;-76
2023/06/10 07:21:44;;;;;;;10.27;5.50;;;19.30;99.90;;;;;;5053522;28;20427;-75
2023/06/10 07:24:09;;;;;;;10.27;5.57;;;19.40;99.90;;;;;;5062165;28;20420;-76
2023/06/10 07:26:35;;;;;;;10.33;5.50;;;19.60;99.90;;;;;;5037371;28;20427;-76
2023/06/10 07:29:00;;;;;;;11.33;5.43;;;19.80;99.90;;;;;;5051809;28;20910;-75
2023/06/10 07:31:26;;;;;;;10.07;5.35;;;19.80;99.90;;;;;;5051623;28;20455;-75
2023/06/10 07:33:52;;;;;;;10.17;5.83;;;19.70;99.90;;;;;;5036420;28;20502;-75
2023/06/10 07:36:18;;;;;;;10.13;5.63;;;;;;;;;;5038780;28;20925;-75
2023/06/10 07:38:44;;;;;;;8.88;5.00;;;20.30;99.90;;;;;;5054030;28;20458;-74
2023/06/10 07:41:10;;;;;;;10.13;5.10;;;20.20;99.90;;;;;;5063033;28;20453;-74
2023/06/10 07:43:37;;;;;;;10.30;5.03;;;20.30;99.90;;;;;;5054499;28;20411;-74
2023/06/10 07:46:02;;;;;;;9.35;5.40;;;20.50;99.90;;;;;;5032342;22;20444;-74
2023/06/10 07:48:28;;;;;;;10.05;5.43;;;20.10;99.90;;;;;;5009363;28;21204;-75
2023/06/10 07:50:54;;;;;;;12.33;5.20;;;20.30;99.90;;;;;;5016061;28;20439;-74
2023/06/10 07:53:19;;;;;;;9.27;4.60;;;20.30;99.90;;;;;;4999895;28;20456;-74
2023/06/10 07:55:45;;;;;;;10.05;5.28;;;20.50;99.90;;;;;;5013677;28;20437;-76
2023/06/10 07:58:11;;;;;;;9.90;4.70;;;20.60;99.90;;;;;;4992563;28;20459;-76
2023/06/10 08:00:37;;;;;;;10.53;5.30;;;21.00;99.90;;;;;;5028758;28;20937;-75
2023/06/10 08:03:02;;;;;;;10.18;4.95;;;20.70;99.90;;;;;;5013533;28;20425;-76
2023/06/10 08:05:28;;;;;;;9.95;5.28;;;21.20;99.90;;;;;;5006007;28;20428;-75
2023/06/10 08:07:55;;;;;;;11.32;5.00;;;21.40;99.90;;;;;;5005422;28;20428;-75
2023/06/10 08:10:21;;;;;;;10.13;4.85;;;21.50;99.90;;;;;;5004961;28;20924;-75
2023/06/10 08:12:46;;;;;;;9.85;4.95;;;21.20;99.90;;;;;;5000358;28;20418;-75
2023/06/10 08:15:12;;;;;;;8.93;4.80;;;21.10;99.90;;;;;;5008796;28;20783;-75
2023/06/10 08:17:38;;;;;;;9.45;5.07;;;20.90;99.90;;;;;;4996656;28;20457;-75
2023/06/10 08:20:05;;;;;;;9.68;4.82;;;21.20;99.90;;;;;;4997106;28;20446;-76
2023/06/10 08:22:31;;;;;;;7.78;4.47;;;21.40;99.90;;;;;;4986216;28;21064;-75
2023/06/10 08:24:57;;;;;;;10.63;5.85;;;21.60;99.90;;;;;;4976991;28;20418;-76
2023/06/10 08:27:23;;;;;;;7.68;4.70;;;21.70;99.90;;;;;;4989024;28;20838;-76
2023/06/10 08:29:48;;;;;;;11.80;4.80;;;21.80;99.90;;;;;;4998174;28;20971;-76
2023/06/10 08:32:14;;;;;;;7.40;4.60;;;21.70;99.90;;;;;;4989181;28;20423;-76
2023/06/10 08:34:40;;;;;;;9.40;4.85;;;21.80;99.90;;;;;;4991357;28;20426;-77
2023/06/10 08:37:07;;;;;;;8.25;4.88;;;22.40;99.90;;;;;;4981443;28;20428;-76
2023/06/10 08:39:33;;;;;;;7.55;4.80;;;22.00;99.90;;;;;;4971696;28;20461;-75
2023/06/10 08:42:28;;;;;;;7.32;4.88;;;22.40;99.90;;;;;;4976307;28;20905;-75
2023/06/10 08:44:55;;;;;;;8.73;4.60;;;22.00;99.90;;;;;;4987519;28;20433;-76
2023/06/10 08:47:24;;;;;;;10.15;4.32;;;22.10;99.90;;;;;;4988800;28;20815;-76
2023/06/10 08:49:51;;;;;;;8.47;4.60;;;22.30;99.90;;;;;;4991387;28;20422;-76
2023/06/10 08:52:22;;;;;;;8.45;4.32;;;22.30;99.90;;;;;;4989240;28;20430;-75
2023/06/10 08:54:59;;;;;;;6.85;4.00;;;22.50;99.90;;;;;;4988666;28;20947;-76
2023/06/10 08:57:26;;;;;;;10.13;4.88;;;22.80;99.90;;;;;;4970188;28;20433;-76
2023/06/10 08:59:54;;;;;;;8.95;5.13;;;22.90;99.90;;;;;;4997779;28;20430;-76
2023/06/10 09:02:21;;;;;;;10.65;4.82;;;22.90;99.90;;;;;;4976071;28;20430;-75
2023/06/10 09:04:50;;;;;;;7.05;4.20;;;23.20;99.90;;;;;;4993174;28;20461;-75
2023/06/10 09:07:16;;;;;;;10.45;4.50;;;23.20;99.90;;;;;;4981101;28;20734;-75
2023/06/10 09:09:45;;;;;;;8.25;4.10;;;23.30;99.90;;;;;;4984306;28;20500;-75
2023/06/10 09:12:13;;;;;;;7.75;4.00;;;23.40;99.90;;;;;;4972124;28;20517;-75
2023/06/10 09:14:38;;;;;;;6.60;4.25;;;23.60;99.90;;;;;;4984794;28;20517;-75
2023/06/10 09:17:05;;;;;;;8.35;4.47;;;23.30;99.90;;;;;;4982189;28;21016;-76
2023/06/10 09:19:32;;;;;;;10.33;4.37;;;23.30;99.90;;;;;;4997131;28;20460;-75
2023/06/10 09:21:58;;;;;;;8.35;4.60;;;23.70;99.90;;;;;;4949021;28;20522;-75
2023/06/10 09:24:25;;;;;;;8.30;4.50;;;23.40;99.90;;;;;;4982989;28;20476;-75
2023/06/10 09:27:01;;;;;;;9.17;4.60;;;23.80;99.90;;;;;;4985093;28;20434;-76
2023/06/10 09:29:27;;;;;;;7.18;3.95;;;24.10;99.90;;;;;;4986843;28;20434;-75
2023/06/10 09:31:52;;;;;;;7.17;4.00;;;24.40;99.90;;;;;;4968554;28;20425;-76
2023/06/10 09:34:18;;;;;;;8.55;4.10;;;24.10;99.90;;;;;;4986825;28;20534;-76
2023/06/10 09:36:45;;;;;;;7.95;3.92;;;24.20;99.90;;;;;;4989458;28;20430;-75
2023/06/10 09:39:16;;;;;;;9.50;3.90;;;23.80;99.90;;;;;;4986937;28;20434;-76
2023/06/10 09:41:42;;;;;;;7.28;4.22;;;23.70;99.90;;;;;;4981765;28;20488;-75
2023/06/10 09:44:17;;;;;;;6.43;3.70;;;24.10;99.90;;;;;;4976833;28;20504;-75
2023/06/10 09:46:45;;;;;;;6.13;3.72;;;24.60;99.90;;;;;;4983480;28;20465;-75
2023/06/10 09:49:11;;;;;;;8.25;3.90;;;24.40;99.80;;;;;;5004693;28;20820;-75
2023/06/10 09:51:37;;;;;;;5.33;3.70;;;24.40;99.70;;;;;;4973537;28;20490;-76
2023/06/10 09:54:04;;;;;;;7.93;3.75;;;24.20;98.50;;;;;;4977585;28;20981;-76
2023/06/10 09:56:36;;;;;;;5.55;3.65;;;24.60;99.70;;;;;;4989141;28;20492;-76
2023/06/10 09:59:06;;;;;;;8.27;4.10;;;24.80;99.70;;;;;;4973740;28;20521;-76
2023/06/10 10:01:33;;;;;;;8.30;4.35;;;23.70;99.90;;;;;;4985822;28;20459;-77
2023/06/10 10:03:59;;;;;;;8.45;4.03;;;24.70;99.90;;;;;;4985633;28;20446;-77
2023/06/10 10:06:26;;;;;;;7.40;3.60;;;25.10;99.90;;;;;;4973767;28;20412;-78
2023/06/10 10:08:52;;;;;;;7.20;3.57;;;25.40;99.90;;;;;;4987028;28;20426;-78
2023/06/10 10:11:21;;;;;;;9.40;3.90;;;25.40;98.30;;;;;;4988416;28;20429;-77
2023/06/10 10:13:49;;;;;;;7.63;3.75;;;25.30;99.90;;;;;;4985848;28;20434;-77
2023/06/10 10:16:32;;;;;;;7.75;3.78;;;25.80;99.90;;;;;;4998426;28;20926;-77
2023/06/10 10:19:06;;;;;;;7.70;3.47;;;25.80;99.70;;;;;;4986300;28;20462;-77
2023/06/10 10:21:37;;;;;;;7.78;3.80;;;25.70;98.80;;;;;;4975021;28;20516;-77
2023/06/10 10:24:12;;;;;;;6.70;3.70;;;25.80;99.00;;;;;;4984628;28;20461;-77
2023/06/10 10:26:39;;;;;;;6.78;3.40;;;26.10;98.80;;;;;;4990330;28;20902;-78
2023/06/10 10:29:13;;;;;;;6.50;3.50;;;26.10;98.80;;;;;;4973320;28;20425;-78
2023/06/10 10:31:41;;;;;;;7.43;3.75;;;26.30;97.80;;;;;;4974496;28;20426;-77
2023/06/10 10:34:12;;;;;;;8.75;4.13;;;26.20;98.60;;;;;;4990248;28;20426;-78
2023/06/10 10:36:38;;;;;;;5.87;3.60;;;25.70;98.60;;;;;;4976963;28;20773;-78
2023/06/10 10:39:04;;;;;;;6.47;3.50;;;25.50;99.00;;;;;;4994108;28;20841;-78
2023/06/10 10:41:32;;;;;;;7.47;3.72;;;26.20;98.70;;;;;;4989513;28;21047;-78
2023/06/10 10:43:59;;;;;;;8.88;3.78;;;25.90;98.20;;;;;;4993227;28;20453;-78
2023/06/10 10:46:25;;;;;;;9.70;3.70;;;26.30;97.70;;;;;;4984117;28;20433;-78
2023/06/10 10:48:55;;;;;;;6.80;3.70;;;26.40;97.90;;;;;;4991553;28;20509;-78
2023/06/10 10:51:23;;;;;;;12.98;3.80;;;26.70;97.90;;;;;;5004845;28;20993;-78
2023/06/10 10:54:14;;;;;;;7.35;3.75;;;26.00;97.80;;;;;;4956529;28;20496;-77
2023/06/10 10:57:00;;;;;;;7.80;3.60;;;26.10;97.40;;;;;;4993411;28;20410;-78
2023/06/10 10:59:42;;;;;;;6.25;3.45;;;26.30;97.70;;;;;;4991289;28;20430;-77
2023/06/10 11:02:08;;;;;;;7.30;3.50;;;26.60;98.00;;;;;;4977573;28;20420;-77
2023/06/10 11:04:34;;;;;;;6.63;3.20;;;26.60;97.50;;;;;;4988935;28;20415;-77
2023/06/10 11:07:06;;;;;;;6.75;3.80;;;26.90;97.60;;;;;;4993469;28;20773;-77
2023/06/10 11:09:32;;;;;;;11.65;4.03;;;26.80;97.20;;;;;;4993569;28;20764;-77
2023/06/10 11:11:59;;;;;;;7.03;3.60;;;26.90;97.10;;;;;;4986945;28;20428;-77
2023/06/10 11:14:29;;;;;;;5.65;3.30;;;26.60;96.50;;;;;;4957272;28;20791;-78
2023/06/10 11:16:59;;;;;;;6.10;3.40;;;25.60;96.70;;;;;;4972675;28;20436;-77
2023/06/10 11:19:46;;;;;;;5.97;3.55;;;24.70;96.20;;;;;;4974989;28;20433;-78
2023/06/10 11:22:17;;;;;;;7.75;3.13;;;26.50;96.00;;;;;;4981960;28;20478;-78
2023/06/10 11:24:48;;;;;;;5.82;3.20;;;26.20;96.30;;;;;;5004947;28;20497;-77
2023/06/10 11:27:22;;;;;;;6.38;3.03;;;26.50;96.50;;;;;;4976055;28;20430;-78
2023/06/10 11:30:03;;;;;;;4.90;3.30;;;26.70;96.50;;;;;;4988009;28;20434;-78
2023/06/10 11:32:34;;;;;;;6.45;2.95;;;27.10;94.50;;;;;;4984324;28;20462;-78
2023/06/10 11:35:03;;;;;;;7.07;3.13;;;27.20;94.50;;;;;;4986641;28;20428;-78
2023/06/10 11:37:29;;;;;;;11.90;3.38;;;27.00;93.90;;;;;;4985826;28;20430;-77
2023/06/10 11:39:55;;;;;;;5.88;2.97;;;26.30;93.80;;;;;;4991369;28;20496;-77
2023/06/10 11:42:25;;;;;;;6.60;3.10;;;26.50;94.50;;;;;;4987329;28;20429;-75
2023/06/10 11:44:52;;;;;;;7.88;3.05;;;26.70;94.40;;;;;;4980930;28;21009;-75
2023/06/10 11:47:19;;;;;;;8.40;3.42;;;27.00;94.30;;;;;;5000370;28;20428;-76
2023/06/10 11:49:45;;;;;;;5.85;2.90;;;27.30;94.00;;;;;;4970370;28;20429;-77
2023/06/10 11:52:11;;;;;;;6.75;2.88;;;27.50;93.00;;;;;;4987648;28;20966;-76
2023/06/10 11:54:38;;;;;;;4.97;2.80;;;27.90;92.40;;;;;;4985579;28;20430;-76
2023/06/10 11:57:03;;;;;;;4.90;2.72;;;28.20;92.10;;;;;;4985657;28;20467;-80
2023/06/10 11:59:30;;;;;;;4.75;2.72;;;28.50;91.30;;;;;;4979979;28;20454;-80
2023/06/10 12:01:56;;;;;;;9.15;2.90;;;27.80;91.10;;;;;;4972106;28;20522;-78
2023/06/10 12:04:22;;;;;;;7.65;2.72;;;27.80;90.60;;;;;;4985874;28;20625;-77
2023/06/10 12:06:50;;;;;;;6.05;2.58;;;27.40;90.20;;;;;;4972888;28;20999;-77
2023/06/10 12:09:23;;;;;;;7.15;2.65;;;27.50;88.80;;;;;;4991108;28;20778;-77
2023/06/10 12:12:00;;;;;;;5.43;2.90;;;28.50;90.90;;;;;;4984893;28;20639;-78
2023/06/10 12:14:57;;;;;;;5.38;2.83;;;27.80;90.10;;;;;;4995725;28;20925;-77
2023/06/10 12:17:32;;;;;;;5.32;2.78;;;27.90;91.60;;;;;;4971129;28;20426;-79
2023/06/10 12:19:59;;;;;;;6.20;3.10;;;27.50;90.50;;;;;;4989346;28;20476;-79
2023/06/10 12:22:26;;;;;;;6.10;2.70;;;27.40;91.60;;;;;;5004997;28;20420;-80
2023/06/10 12:24:59;;;;;;;7.45;3.15;;;28.20;91.10;;;;;;4993404;28;20805;-78
2023/06/10 12:27:25;;;;;;;6.13;3.10;;;28.40;90.90;;;;;;4988550;28;20425;-79
2023/06/10 12:29:55;;;;;;;6.28;3.10;;;28.00;90.00;;;;;;4989540;28;20946;-78
2023/06/10 12:32:26;;;;;;;6.27;3.07;;;28.30;89.60;;;;;;4970516;28;20454;-77
2023/06/10 12:35:04;;;;;;;4.80;2.80;;;29.00;89.00;;;;;;4989414;28;20787;-78
2023/06/10 12:37:30;;;;;;;4.28;2.80;;;28.30;88.30;;;;;;4970688;28;20520;-77
2023/06/10 12:39:56;;;;;;;4.50;2.53;;;29.20;88.70;;;;;;4990741;28;20509;-77
2023/06/10 12:42:25;;;;;;;6.50;2.95;;;29.20;86.10;;;;;;4991764;28;20501;-77
2023/06/10 12:44:54;;;;;;;5.20;2.97;;;29.00;87.10;;;;;;4990054;28;20951;-78
2023/06/10 12:47:19;;;;;;;5.95;2.80;;;28.10;84.40;;;;;;4984817;28;20419;-78
2023/06/10 12:49:45;;;;;;;4.73;2.87;;;28.40;86.40;;;;;;4984640;28;20426;-78
2023/06/10 12:52:11;;;;;;;5.22;2.97;;;28.60;86.80;;;;;;4989023;28;20480;-78
2023/06/10 12:54:37;;;;;;;6.43;2.90;;;28.20;86.00;;;;;;4970847;28;20448;-78
2023/06/10 12:57:03;;;;;;;4.43;2.80;;;28.40;86.40;;;;;;4989301;28;20438;-78
2023/06/10 12:59:29;;;;;;;5.70;3.00;;;28.50;85.40;;;;;;4994876;28;20432;-77
2023/06/10 13:01:55;;;;;;;5.20;3.03;;;28.60;85.80;;;;;;4977969;28;20477;-78
2023/06/10 13:04:21;;;;;;;5.13;2.80;;;28.70;86.30;;;;;;4992834;28;20487;-77
2023/06/10 13:06:48;;;;;;;6.60;3.17;;;29.10;85.30;;;;;;4992674;28;20421;-78